createdAt,value
2019-06-20T00:01:12.859Z,16.30
2019-06-20T00:03:42.329Z,16.30
2019-06-20T00:06:11.796Z,16.30
2019-06-20T00:08:41.306Z,16.30
2019-06-20T00:11:10.761Z,16.40
2019-06-20T00:13:40.604Z,16.40
2019-06-20T00:16:10.091Z,16.40
2019-06-20T00:18:39.585Z,16.40
2019-06-20T00:21:09.304Z,16.30
2019-06-20T00:23:38.790Z,16.30
2019-06-20T00:26:08.245Z,16.30
2019-06-20T00:28:37.683Z,16.30
2019-06-20T00:31:07.118Z,16.30
2019-06-20T00:33:36.630Z,16.30
2019-06-20T00:36:06.316Z,16.40
2019-06-20T00:38:35.814Z,16.30
2019-06-20T00:41:05.277Z,16.40
2019-06-20T00:43:34.692Z,16.40
2019-06-20T00:46:04.088Z,16.40
2019-06-20T00:48:33.605Z,16.40
2019-06-20T00:51:03.030Z,16.40
2019-06-20T00:53:32.477Z,16.40
2019-06-20T00:56:01.858Z,16.40
2019-06-20T00:58:31.354Z,16.40
2019-06-20T01:01:00.757Z,16.40
2019-06-20T01:03:30.263Z,16.40
2019-06-20T01:05:59.743Z,16.40
2019-06-20T01:08:29.202Z,16.50
2019-06-20T01:10:58.703Z,16.50
2019-06-20T01:13:33.723Z,16.50
2019-06-20T01:15:59.354Z,16.50
2019-06-20T01:18:28.824Z,16.50
2019-06-20T01:20:58.389Z,16.50
2019-06-20T01:23:27.869Z,16.50
2019-06-20T01:25:57.348Z,16.60
2019-06-20T01:28:26.741Z,16.50
2019-06-20T01:30:56.611Z,16.50
2019-06-20T01:33:26.458Z,16.50
2019-06-20T01:35:56.006Z,16.50
2019-06-20T01:38:25.465Z,16.50
2019-06-20T01:40:54.959Z,16.60
2019-06-20T01:43:24.446Z,16.50
2019-06-20T01:45:53.937Z,16.60
2019-06-20T01:48:23.383Z,16.60
2019-06-20T01:50:52.897Z,16.60
2019-06-20T01:53:22.384Z,16.60
2019-06-20T01:55:51.890Z,16.60
2019-06-20T01:58:21.380Z,16.60
2019-06-20T02:00:52.405Z,16.60
2019-06-20T02:03:22.695Z,16.60
2019-06-20T02:05:52.178Z,16.60
2019-06-20T02:08:21.690Z,16.60
2019-06-20T02:10:51.140Z,16.60
2019-06-20T02:13:20.662Z,16.60
2019-06-20T02:15:50.214Z,16.60
2019-06-20T02:18:19.707Z,16.60
2019-06-20T02:20:52.883Z,16.60
2019-06-20T02:23:22.638Z,16.60
2019-06-20T02:25:52.219Z,16.60
2019-06-20T02:28:22.214Z,16.60
2019-06-20T02:30:51.695Z,16.60
2019-06-20T02:33:21.185Z,16.60
2019-06-20T02:35:50.799Z,16.60
2019-06-20T02:38:20.293Z,16.60
2019-06-20T02:40:49.840Z,16.60
2019-06-20T02:43:19.548Z,16.60
2019-06-20T02:45:48.993Z,16.50
2019-06-20T02:48:18.478Z,16.60
2019-06-20T02:50:47.971Z,16.50
2019-06-20T02:53:17.424Z,16.50
2019-06-20T02:55:46.855Z,16.50
2019-06-20T02:58:19.153Z,16.60
2019-06-20T03:00:57.914Z,16.60
2019-06-20T03:03:28.258Z,16.60
2019-06-20T03:05:57.907Z,16.50
2019-06-20T03:08:27.558Z,16.60
2019-06-20T03:10:57.040Z,16.50
2019-06-20T03:13:26.601Z,16.50
2019-06-20T03:15:56.365Z,16.50
2019-06-20T03:18:25.842Z,16.50
2019-06-20T03:20:55.338Z,16.50
2019-06-20T03:23:24.790Z,16.50
2019-06-20T03:25:54.289Z,16.40
2019-06-20T03:28:23.761Z,16.40
2019-06-20T03:30:53.152Z,16.50
2019-06-20T03:33:22.666Z,16.50
2019-06-20T03:35:52.190Z,16.50
2019-06-20T03:38:21.664Z,16.50
2019-06-20T03:40:51.058Z,16.40
2019-06-20T03:43:20.503Z,16.40
2019-06-20T03:45:49.955Z,16.50
2019-06-20T03:48:19.446Z,16.50
2019-06-20T03:50:48.918Z,16.50
2019-06-20T03:53:18.328Z,16.50
2019-06-20T03:55:47.813Z,16.50
2019-06-20T03:58:17.317Z,16.50
2019-06-20T04:00:46.781Z,16.50
2019-06-20T04:03:16.220Z,16.50
2019-06-20T04:05:46.002Z,16.60
2019-06-20T04:08:15.589Z,16.60
2019-06-20T04:10:45.024Z,16.60
2019-06-20T04:13:14.453Z,16.50
2019-06-20T04:15:43.952Z,16.50
2019-06-20T04:18:13.428Z,16.50
2019-06-20T04:20:42.909Z,16.50
2019-06-20T04:23:12.371Z,16.50
2019-06-20T04:25:41.853Z,16.50
2019-06-20T04:28:11.242Z,16.50
2019-06-20T04:30:40.741Z,16.50
2019-06-20T04:33:10.199Z,16.50
2019-06-20T04:35:40.071Z,16.50
2019-06-20T04:38:09.465Z,16.50
2019-06-20T04:40:38.894Z,16.50
2019-06-20T04:43:08.365Z,16.50
2019-06-20T04:46:02.835Z,16.60
2019-06-20T04:48:32.330Z,16.60
2019-06-20T04:51:04.676Z,16.60
2019-06-20T04:53:34.406Z,16.60
2019-06-20T04:56:05.737Z,16.60
2019-06-20T04:58:35.021Z,16.50
2019-06-20T05:01:04.530Z,16.60
2019-06-20T05:03:34.014Z,16.70
2019-06-20T05:06:03.517Z,16.70
2019-06-20T05:08:33.013Z,16.70
2019-06-20T05:11:02.712Z,16.70
2019-06-20T05:13:32.258Z,16.70
2019-06-20T05:16:01.786Z,16.80
2019-06-20T05:18:31.263Z,16.80
2019-06-20T05:21:00.819Z,16.80
2019-06-20T05:23:30.339Z,16.90
2019-06-20T05:25:59.823Z,16.90
2019-06-20T05:28:29.288Z,16.90
2019-06-20T05:30:58.767Z,17.00
2019-06-20T05:33:28.217Z,17.00
2019-06-20T05:35:57.728Z,17.00
2019-06-20T05:38:27.120Z,17.00
2019-06-20T05:40:56.603Z,17.00
2019-06-20T05:43:26.137Z,17.00
2019-06-20T05:46:08.790Z,17.00
2019-06-20T05:48:26.750Z,17.00
2019-06-20T05:50:56.262Z,17.00
2019-06-20T05:53:26.006Z,17.10
2019-06-20T05:55:55.494Z,17.10
2019-06-20T05:58:24.937Z,17.10
2019-06-20T06:00:54.809Z,17.10
2019-06-20T06:03:24.232Z,17.10
2019-06-20T06:05:53.724Z,17.10
2019-06-20T06:08:23.977Z,17.00
2019-06-20T06:10:53.392Z,17.00
2019-06-20T06:13:22.863Z,17.00
2019-06-20T06:15:52.609Z,17.00
2019-06-20T06:18:22.490Z,16.90
2019-06-20T06:20:51.977Z,16.90
2019-06-20T06:23:21.453Z,16.90
2019-06-20T06:25:50.944Z,17.00
2019-06-20T06:28:20.410Z,17.00
2019-06-20T06:30:50.714Z,17.00
2019-06-20T06:33:20.335Z,17.00
2019-06-20T06:35:49.871Z,17.00
2019-06-20T06:38:21.992Z,17.00
2019-06-20T06:40:50.930Z,17.00
2019-06-20T06:43:20.724Z,17.00
2019-06-20T06:45:50.797Z,17.00
2019-06-20T06:48:20.540Z,17.00
2019-06-20T06:50:50.014Z,17.00
2019-06-20T06:53:19.558Z,16.90
2019-06-20T06:55:49.313Z,16.90
2019-06-20T06:58:18.799Z,16.90
2019-06-20T07:00:48.372Z,17.00
2019-06-20T07:03:17.869Z,17.00
2019-06-20T07:05:47.386Z,17.10
2019-06-20T07:08:16.793Z,17.20
2019-06-20T07:10:49.832Z,17.30
2019-06-20T07:13:19.337Z,17.30
2019-06-20T07:15:49.107Z,17.50
2019-06-20T07:18:18.688Z,17.60
2019-06-20T07:20:48.192Z,17.70
2019-06-20T07:23:17.673Z,18.00
2019-06-20T07:25:47.543Z,18.20
2019-06-20T07:28:17.012Z,18.40
2019-06-20T07:30:46.505Z,18.70
2019-06-20T07:33:16.327Z,18.90
2019-06-20T07:35:45.799Z,19.00
2019-06-20T07:38:15.350Z,19.00
2019-06-20T07:40:44.967Z,19.20
2019-06-20T07:43:14.547Z,19.30
2019-06-20T07:45:58.421Z,19.60
2019-06-20T07:48:15.101Z,19.70
2019-06-20T07:50:44.876Z,19.70
2019-06-20T07:53:14.385Z,19.80
2019-06-20T07:55:44.082Z,19.90
2019-06-20T07:58:13.466Z,20.00
2019-06-20T08:00:43.326Z,20.00
2019-06-20T08:03:13.284Z,20.00
2019-06-20T08:05:42.766Z,20.00
2019-06-20T08:08:12.574Z,20.10
2019-06-20T08:10:42.023Z,20.30
2019-06-20T08:13:11.514Z,20.40
2019-06-20T08:15:41.445Z,20.40
2019-06-20T08:18:11.324Z,20.40
2019-06-20T08:20:41.066Z,20.50
2019-06-20T08:23:10.536Z,20.60
2019-06-20T08:25:40.121Z,21.00
2019-06-20T08:28:09.666Z,21.20
2019-06-20T08:30:39.218Z,21.60
2019-06-20T08:33:11.833Z,21.50
2019-06-20T08:35:40.539Z,21.70
2019-06-20T08:38:10.021Z,21.70
2019-06-20T08:40:42.337Z,21.80
2019-06-20T08:43:12.357Z,22.10
2019-06-20T08:45:43.534Z,22.10
2019-06-20T08:48:13.492Z,21.90
2019-06-20T08:50:43.359Z,21.60
2019-06-20T08:53:13.251Z,21.60
2019-06-20T08:55:43.107Z,21.50
2019-06-20T08:58:12.967Z,21.80
2019-06-20T09:00:43.723Z,22.10
2019-06-20T09:03:13.470Z,21.90
2019-06-20T09:05:43.358Z,22.10
2019-06-20T09:08:12.798Z,22.10
2019-06-20T09:10:42.886Z,22.50
2019-06-20T09:13:13.158Z,22.70
2019-06-20T09:15:43.419Z,22.80
2019-06-20T09:18:13.089Z,22.70
2019-06-20T09:20:42.549Z,22.80
2019-06-20T09:23:12.003Z,22.70
2019-06-20T09:25:41.916Z,23.00
2019-06-20T09:28:11.430Z,23.20
2019-06-20T09:30:41.653Z,23.00
2019-06-20T09:33:11.426Z,22.90
2019-06-20T09:35:41.481Z,22.90
2019-06-20T09:38:11.261Z,22.80
2019-06-20T09:40:40.787Z,22.90
2019-06-20T09:43:10.605Z,23.00
2019-06-20T09:45:40.448Z,22.90
2019-06-20T09:48:10.229Z,23.00
2019-06-20T09:50:39.972Z,23.20
2019-06-20T09:53:09.476Z,23.40
2019-06-20T09:55:39.191Z,23.60
2019-06-20T09:58:08.668Z,23.50
2019-06-20T10:00:39.121Z,23.10
2019-06-20T10:03:08.767Z,23.10
2019-06-20T10:05:38.458Z,23.10
2019-06-20T10:08:07.919Z,23.20
2019-06-20T10:10:37.575Z,23.20
2019-06-20T10:13:07.466Z,23.00
2019-06-20T10:15:38.374Z,23.00
2019-06-20T10:18:08.393Z,23.10
2019-06-20T10:20:39.060Z,23.30
2019-06-20T10:23:09.252Z,23.40
2019-06-20T10:25:39.292Z,23.80
2019-06-20T10:28:09.059Z,23.90
2019-06-20T10:30:38.556Z,24.30
2019-06-20T10:33:08.036Z,24.40
2019-06-20T10:35:37.520Z,24.80
2019-06-20T10:38:06.980Z,25.20
2019-06-20T10:40:36.452Z,25.10
2019-06-20T10:43:06.396Z,25.30
2019-06-20T10:45:37.766Z,25.60
2019-06-20T10:48:07.957Z,25.70
2019-06-20T10:50:37.435Z,25.60
2019-06-20T10:53:09.060Z,25.50
2019-06-20T10:55:38.601Z,25.20
2019-06-20T10:58:08.328Z,24.90
2019-06-20T11:00:37.745Z,24.90
2019-06-20T11:03:08.047Z,25.20
2019-06-20T11:05:37.706Z,25.10
2019-06-20T11:08:07.200Z,24.90
2019-06-20T11:10:36.682Z,24.80
2019-06-20T11:13:06.175Z,24.50
2019-06-20T11:15:35.951Z,24.30
2019-06-20T11:18:05.417Z,24.00
2019-06-20T11:20:34.916Z,23.60
2019-06-20T11:23:04.514Z,23.40
2019-06-20T11:25:34.429Z,23.30
2019-06-20T11:28:03.832Z,23.30
2019-06-20T11:30:48.293Z,23.40
2019-06-20T11:33:05.121Z,23.60
2019-06-20T11:35:35.892Z,23.90
2019-06-20T11:38:06.261Z,24.10
2019-06-20T11:40:38.090Z,24.00
2019-06-20T11:43:07.694Z,23.80
2019-06-20T11:45:52.683Z,23.50
2019-06-20T11:48:22.251Z,23.30
2019-06-20T11:50:52.388Z,23.00
2019-06-20T11:53:33.647Z,22.80
2019-06-20T11:56:04.056Z,22.70
2019-06-20T11:58:33.606Z,22.60
2019-06-20T12:01:04.222Z,22.50
2019-06-20T12:03:33.902Z,22.60
2019-06-20T12:06:03.304Z,22.60
2019-06-20T12:08:33.096Z,22.60
2019-06-20T12:11:03.173Z,23.20
2019-06-20T12:13:32.602Z,23.70
2019-06-20T12:16:02.120Z,24.10
2019-06-20T12:18:31.605Z,24.40
2019-06-20T12:21:01.067Z,25.00
2019-06-20T12:23:30.559Z,25.70
2019-06-20T12:26:00.033Z,26.40
2019-06-20T12:28:32.660Z,26.70
2019-06-20T12:31:02.158Z,26.60
2019-06-20T12:33:31.770Z,26.10
2019-06-20T12:36:01.160Z,25.90
2019-06-20T12:38:30.677Z,25.50
2019-06-20T12:41:00.379Z,25.30
2019-06-20T12:43:32.412Z,25.10
2019-06-20T12:46:01.826Z,24.90
2019-06-20T12:48:31.302Z,24.70
2019-06-20T12:51:00.777Z,24.60
2019-06-20T12:53:30.402Z,24.50
2019-06-20T12:55:59.872Z,24.20
2019-06-20T12:58:29.388Z,24.20
2019-06-20T13:00:58.894Z,24.10
2019-06-20T13:03:59.799Z,23.80
2019-06-20T13:06:29.278Z,23.60
2019-06-20T13:08:58.779Z,23.00
2019-06-20T13:11:28.468Z,22.70
2019-06-20T13:13:57.957Z,22.30
2019-06-20T13:16:27.378Z,22.10
2019-06-20T13:18:56.879Z,21.80
2019-06-20T13:21:27.196Z,21.50
2019-06-20T13:23:57.150Z,21.40
2019-06-20T13:26:27.031Z,21.30
2019-06-20T13:29:03.978Z,21.10
2019-06-20T13:31:30.549Z,20.90
2019-06-20T13:34:00.494Z,20.80
2019-06-20T13:36:30.097Z,20.60
2019-06-20T13:38:59.514Z,20.40
2019-06-20T13:41:29.021Z,20.20
2019-06-20T13:43:58.523Z,19.80
2019-06-20T13:46:28.297Z,19.50
2019-06-20T13:48:57.832Z,19.40
2019-06-20T13:51:28.310Z,19.10
2019-06-20T13:53:58.401Z,18.90
2019-06-20T13:56:28.154Z,18.70
2019-06-20T13:58:58.010Z,18.70
2019-06-20T14:01:27.525Z,18.60
2019-06-20T14:03:57.381Z,18.80
2019-06-20T14:06:26.927Z,18.90
2019-06-20T14:08:56.421Z,19.10
2019-06-20T14:11:25.900Z,19.20
2019-06-20T14:13:55.378Z,19.40
2019-06-20T14:16:24.856Z,19.40
2019-06-20T14:18:55.091Z,19.40
2019-06-20T14:21:24.580Z,19.40
2019-06-20T14:23:54.727Z,19.30
2019-06-20T14:26:27.257Z,19.40
2019-06-20T14:28:58.280Z,19.40
2019-06-20T14:31:28.033Z,19.30
2019-06-20T14:33:57.549Z,19.30
2019-06-20T14:36:27.317Z,19.30
2019-06-20T14:38:57.019Z,19.30
2019-06-20T14:41:26.498Z,19.30
2019-06-20T14:43:56.358Z,19.20
2019-06-20T14:46:25.930Z,19.10
2019-06-20T14:48:55.363Z,19.10
2019-06-20T14:51:24.830Z,19.00
2019-06-20T14:53:54.578Z,19.00
2019-06-20T14:56:24.462Z,18.80
2019-06-20T14:58:55.441Z,18.70
2019-06-20T15:01:25.133Z,18.60
2019-06-20T15:03:55.921Z,18.60
2019-06-20T15:06:25.482Z,18.50
2019-06-20T15:09:03.290Z,18.50
2019-06-20T15:11:26.080Z,18.50
2019-06-20T15:13:55.563Z,18.60
2019-06-20T15:16:25.028Z,18.50
2019-06-20T15:18:55.744Z,18.50
2019-06-20T15:21:25.626Z,18.40
2019-06-20T15:23:56.664Z,18.40
2019-06-20T15:26:26.206Z,18.40
2019-06-20T15:28:57.076Z,18.50
2019-06-20T15:31:26.802Z,18.50
2019-06-20T15:33:57.233Z,18.50
2019-06-20T15:36:27.784Z,18.60
2019-06-20T15:38:57.388Z,18.50
2019-06-20T15:41:26.976Z,18.50
2019-06-20T15:43:57.834Z,18.50
2019-06-20T15:46:30.534Z,18.50
2019-06-20T15:49:00.285Z,18.50
2019-06-20T15:51:30.593Z,18.50
2019-06-20T15:54:00.742Z,18.50
2019-06-20T15:56:30.482Z,18.60
2019-06-20T15:58:59.933Z,18.60
2019-06-20T16:01:29.566Z,18.60
2019-06-20T16:03:59.462Z,18.60
2019-06-20T16:06:28.945Z,18.60
2019-06-20T16:08:58.802Z,18.60
2019-06-20T16:11:28.389Z,18.70
2019-06-20T16:13:58.184Z,18.70
2019-06-20T16:16:27.663Z,18.80
2019-06-20T16:18:57.462Z,18.90
2019-06-20T16:21:27.298Z,19.10
2019-06-20T16:23:56.777Z,19.20
2019-06-20T16:26:26.452Z,19.20
2019-06-20T16:28:55.990Z,19.20
2019-06-20T16:31:27.176Z,19.20
2019-06-20T16:33:57.719Z,19.20
2019-06-20T16:36:27.487Z,19.20
2019-06-20T16:38:57.022Z,19.20
2019-06-20T16:41:26.613Z,19.30
2019-06-20T16:43:56.311Z,19.30
2019-06-20T16:46:25.758Z,19.20
2019-06-20T16:48:55.282Z,19.10
2019-06-20T16:51:24.741Z,19.10
2019-06-20T16:53:54.563Z,19.30
2019-06-20T16:56:24.339Z,19.60
2019-06-20T16:58:53.839Z,19.70
2019-06-20T17:01:23.310Z,19.80
2019-06-20T17:03:52.827Z,19.70
2019-06-20T17:06:22.282Z,19.50
2019-06-20T17:08:51.758Z,19.40
2019-06-20T17:11:21.545Z,19.30
2019-06-20T17:13:51.090Z,19.20
2019-06-20T17:16:20.888Z,19.00
2019-06-20T17:18:50.470Z,18.90
2019-06-20T17:21:20.072Z,18.80
2019-06-20T17:23:50.775Z,18.80
2019-06-20T17:26:20.626Z,18.70
2019-06-20T17:28:50.316Z,18.60
2019-06-20T17:31:21.015Z,18.60
2019-06-20T17:33:57.511Z,18.50
2019-06-20T17:36:25.773Z,18.50
2019-06-20T17:38:55.659Z,18.40
2019-06-20T17:41:25.527Z,18.30
2019-06-20T17:44:22.587Z,18.30
2019-06-20T17:46:52.029Z,18.30
2019-06-20T17:49:24.234Z,18.30
2019-06-20T17:51:53.709Z,18.20
2019-06-20T17:54:23.511Z,18.20
2019-06-20T17:56:52.993Z,18.20
2019-06-20T17:59:23.009Z,18.20
2019-06-20T18:01:52.496Z,18.10
2019-06-20T18:04:22.510Z,18.10
2019-06-20T18:06:52.003Z,18.00
2019-06-20T18:09:21.487Z,18.00
2019-06-20T18:11:51.006Z,17.90
2019-06-20T18:14:20.462Z,17.90
2019-06-20T18:16:50.808Z,17.90
2019-06-20T18:19:20.226Z,17.90
2019-06-20T18:21:49.749Z,17.80
2019-06-20T18:24:20.065Z,17.80
2019-06-20T18:26:49.569Z,17.80
2019-06-20T18:29:19.048Z,17.80
2019-06-20T18:31:48.878Z,17.70
2019-06-20T18:34:29.521Z,17.70
2019-06-20T18:36:49.543Z,17.70
2019-06-20T18:39:19.436Z,17.60
2019-06-20T18:41:49.277Z,17.50
2019-06-20T18:44:18.910Z,17.40
2019-06-20T18:46:48.308Z,17.40
2019-06-20T18:49:18.215Z,17.30
2019-06-20T18:51:47.724Z,17.30
2019-06-20T18:54:17.233Z,17.20
2019-06-20T18:56:47.094Z,17.30
2019-06-20T18:59:16.590Z,17.30
2019-06-20T19:01:46.058Z,17.20
2019-06-20T19:04:16.230Z,17.20
2019-06-20T19:06:46.157Z,17.20
2019-06-20T19:09:15.671Z,17.10
2019-06-20T19:11:45.169Z,17.10
2019-06-20T19:14:14.669Z,17.00
2019-06-20T19:16:44.069Z,17.00
2019-06-20T19:19:14.415Z,17.00
2019-06-20T19:21:43.919Z,16.90
2019-06-20T19:24:13.418Z,16.80
2019-06-20T19:26:43.227Z,16.80
2019-06-20T19:29:16.066Z,16.80
2019-06-20T19:31:45.921Z,16.70
2019-06-20T19:34:15.446Z,16.70
2019-06-20T19:36:44.941Z,16.70
2019-06-20T19:39:14.385Z,16.60
2019-06-20T19:41:43.904Z,16.50
2019-06-20T19:44:13.774Z,16.60
2019-06-20T19:46:43.241Z,16.60
2019-06-20T19:49:12.752Z,16.50
2019-06-20T19:51:42.250Z,16.50
2019-06-20T19:54:12.112Z,16.40
2019-06-20T19:56:44.686Z,16.50
2019-06-20T19:59:14.547Z,16.40
2019-06-20T20:01:44.006Z,16.40
2019-06-20T20:04:13.518Z,16.30
2019-06-20T20:06:43.693Z,16.30
2019-06-20T20:09:13.183Z,16.20
2019-06-20T20:11:42.643Z,16.20
2019-06-20T20:14:12.267Z,16.20
2019-06-20T20:16:42.158Z,16.20
2019-06-20T20:19:11.658Z,16.20
2019-06-20T20:21:41.166Z,16.20
2019-06-20T20:24:10.907Z,16.10
2019-06-20T20:26:40.923Z,16.00
2019-06-20T20:29:10.761Z,16.00
2019-06-20T20:31:40.333Z,15.90
2019-06-20T20:34:11.963Z,15.80
2019-06-20T20:36:41.621Z,15.80
2019-06-20T20:39:11.073Z,15.80
2019-06-20T20:41:40.686Z,15.80
2019-06-20T20:44:10.474Z,15.70
2019-06-20T20:46:39.991Z,15.70
2019-06-20T20:49:09.486Z,15.60
2019-06-20T20:51:39.325Z,15.50
2019-06-20T20:54:08.792Z,15.50
2019-06-20T20:56:38.213Z,15.40
2019-06-20T20:59:07.700Z,15.40
2019-06-20T21:01:37.170Z,15.30
2019-06-20T21:04:07.024Z,15.30
2019-06-20T21:06:36.730Z,15.20
2019-06-20T21:09:08.017Z,15.20
2019-06-20T21:11:37.440Z,15.10
2019-06-20T21:14:07.017Z,15.00
2019-06-20T21:16:37.346Z,15.00
2019-06-20T21:19:10.118Z,15.00
2019-06-20T21:21:39.533Z,14.90
2019-06-20T21:24:08.999Z,14.90
2019-06-20T21:26:48.807Z,14.80
2019-06-20T21:29:09.893Z,14.80
2019-06-20T21:31:42.430Z,14.80
2019-06-20T21:34:11.937Z,14.70
2019-06-20T21:36:41.417Z,14.70
2019-06-20T21:39:11.437Z,14.60
2019-06-20T21:41:41.196Z,14.60
2019-06-20T21:44:10.942Z,14.60
2019-06-20T21:46:40.651Z,14.60
2019-06-20T21:49:10.357Z,14.60
2019-06-20T21:51:44.591Z,14.60
2019-06-20T21:54:13.221Z,14.60
2019-06-20T21:56:42.633Z,14.60
2019-06-20T21:59:12.416Z,14.50
2019-06-20T22:01:42.351Z,14.50
2019-06-20T22:04:12.299Z,14.50
2019-06-20T22:06:42.082Z,14.50
2019-06-20T22:09:11.985Z,14.40
2019-06-20T22:11:41.368Z,14.40
2019-06-20T22:14:10.992Z,14.30
2019-06-20T22:16:40.566Z,14.30
2019-06-20T22:19:10.018Z,14.30
2019-06-20T22:21:39.549Z,14.30
2019-06-20T22:24:09.061Z,14.30
2019-06-20T22:26:38.642Z,14.40
2019-06-20T22:29:08.121Z,14.40
2019-06-20T22:31:37.879Z,14.40
2019-06-20T22:34:11.021Z,14.40
2019-06-20T22:36:40.884Z,14.40
2019-06-20T22:39:10.605Z,14.40
2019-06-20T22:41:40.154Z,14.30
2019-06-20T22:44:09.630Z,14.30
2019-06-20T22:46:39.136Z,14.20
2019-06-20T22:49:08.558Z,14.20
2019-06-20T22:51:38.029Z,14.30
2019-06-20T22:54:07.921Z,14.30
2019-06-20T22:56:37.759Z,14.20
2019-06-20T22:59:07.256Z,14.20
2019-06-20T23:01:36.783Z,14.20
2019-06-20T23:04:06.622Z,14.20
2019-06-20T23:06:36.242Z,14.20
2019-06-20T23:09:08.897Z,14.20
2019-06-20T23:11:38.766Z,14.20
2019-06-20T23:14:08.246Z,14.10
2019-06-20T23:16:37.729Z,14.10
2019-06-20T23:19:07.220Z,14.10
2019-06-20T23:21:37.080Z,14.20
2019-06-20T23:24:06.548Z,14.10
2019-06-20T23:26:36.139Z,14.10
2019-06-20T23:29:23.864Z,14.10
2019-06-20T23:31:54.532Z,14.10
2019-06-20T23:34:24.559Z,14.00
2019-06-20T23:36:54.133Z,14.10
2019-06-20T23:39:23.607Z,14.00
2019-06-20T23:41:53.123Z,14.00
2019-06-20T23:44:23.299Z,14.00
2019-06-20T23:46:52.753Z,14.00
2019-06-20T23:49:22.242Z,14.10
2019-06-20T23:52:02.585Z,14.10
2019-06-20T23:54:32.046Z,14.10
2019-06-20T23:57:01.533Z,14.20
2019-06-20T23:59:31.014Z,14.30
